Flight Track Log - Related Links

Times and Time Zones

All times are in EDT time to prevent confusion due to time zone crossing. See the USC105 flight status page for this flight to view local times or setup timezone preferences in your user account.

Time Position Orientation Groundspeed Altitude Reporting Facility
EDT Latitude Longitude Course Direction KTS MPH feet Rate Location/Type
Wed 06:40:42 AM 42.2022 -83.5853 231° Southwest 110 127 2,600  Level Cleveland Center
Wed 06:41:43 AM 42.1706 -83.5922 189° South 118 136 3,700 1,082 Climbing Cleveland Center
Wed 06:42:44 AM 42.1372 -83.5933 181° South 119 137 4,800 1,140 Climbing Cleveland Center
Wed 06:43:44 AM 42.1042 -83.5864 171° South 121 139 6,000 1,041 Climbing Cleveland Center
Wed 06:44:45 AM 42.0731 -83.5792 170° South 123 142 6,900 86 Climbing Cleveland Center
Wed 06:46:00 AM 42.0183 -83.5628 166° South  Level Estimated
Wed 06:53:00 AM 41.7115 -83.4718 170° South  Level Estimated
Wed 06:54:00 AM 41.6683 -83.4558 165° South  Level FlightAware Approximate
Wed 06:55:00 AM 41.6250 -83.4397 165° South  Level FlightAware Approximate
Wed 06:55:19 AM 41.5836 -83.4317 165° South 177 204 7,000  Level Indianapolis Center
Wed 06:56:00 AM 41.5817 -83.4237 165° South  Level FlightAware Approximate
Wed 06:56:20 AM 41.5353 -83.4164 167° South 177 204 7,000  Level Indianapolis Center
Wed 06:57:00 AM 41.5385 -83.4077 165° South  Level FlightAware Approximate
Wed 06:57:21 AM 41.4883 -83.4028 168° South 175 201 7,000  Level Indianapolis Center
Wed 06:58:00 AM 41.4952 -83.3918 165° South  Level FlightAware Approximate
Wed 06:58:22 AM 41.4397 -83.3883 167° South 176 203 7,000  Level Indianapolis Center
Wed 06:59:00 AM 41.4520 -83.3758 165° South  Level FlightAware Approximate
Wed 06:59:23 AM 41.3919 -83.3764 169° South 174 200 7,000  Level Indianapolis Center
Wed 07:00:00 AM 41.4087 -83.3599 165° South  Level FlightAware Approximate
Wed 07:00:24 AM 41.3439 -83.3622 168° South 175 201 7,000  Level Indianapolis Center
Wed 07:01:25 AM 41.2953 -83.3467 166° South 176 203 7,000  Level Indianapolis Center
Wed 07:02:26 AM 41.2475 -83.3333 168° South 176 203 7,000 -49 Level Indianapolis Center
Wed 07:03:27 AM 41.1992 -83.3197 168° South 176 203 6,900 -49 Descending Indianapolis Center
Wed 07:04:28 AM 41.1419 -83.3039 168° South 177 204 6,900  Level Indianapolis Center
Wed 07:05:29 AM 41.0936 -83.2897 168° South 177 204 6,900  Level Indianapolis Center
Wed 07:06:30 AM 41.0450 -83.2742 166° South 178 205 6,900  Level Indianapolis Center
Wed 07:07:31 AM 40.9967 -83.2619 169° South 176 203 6,900  Level Indianapolis Center
Wed 07:08:32 AM 40.9472 -83.2481 168° South 178 205 6,900  Level Indianapolis Center
Wed 07:09:33 AM 40.8989 -83.2339 168° South 178 205 6,900  Level Indianapolis Center
Wed 07:10:34 AM 40.8506 -83.2189 167° South 177 204 6,900  Level Indianapolis Center
Wed 07:11:35 AM 40.8019 -83.2061 169° South 176 203 6,900  Level Indianapolis Center
Wed 07:12:36 AM 40.7508 -83.1911 167° South 177 204 6,900  Level Indianapolis Center
Wed 07:13:37 AM 40.7017 -83.1761 167° South 180 207 6,900  Level Indianapolis Center
Wed 07:14:38 AM 40.6533 -83.1631 168° South 177 204 6,900  Level Indianapolis Center
Wed 07:15:39 AM 40.6072 -83.1508 169° South 177 204 6,900  Level Indianapolis Center
Wed 07:16:41 AM 40.5586 -83.1367 168° South 178 205 6,900  Level Indianapolis Center
Wed 07:17:42 AM 40.5058 -83.1228 169° South 178 205 6,900  Level Indianapolis Center
Wed 07:18:43 AM 40.4567 -83.1083 167° South 180 207 6,900  Level Indianapolis Center
Wed 07:19:35 AM 40.4125 -83.0994 171° South 181 208 6,900  Level Indianapolis Center
Wed 07:20:35 AM 40.3614 -83.0825 166° South 180 207 6,900  Level Indianapolis Center
Wed 07:21:42 AM 40.3058 -83.0681 169° South 180 207 6,900  Level Indianapolis Center
Wed 07:22:48 AM 40.2581 -83.0536 167° South 178 205 6,900 -47 Level Indianapolis Center
Wed 07:23:49 AM 40.2086 -83.0392 167° South 179 206 6,800 -639 Descending Indianapolis Center
Wed 07:24:50 AM 40.1478 -83.0222 168° South 207 238 5,600 -1,082 Descending Indianapolis Center
Wed 07:25:51 AM 40.0903 -83.0047 167° South 207 238 4,600 -793 Descending Indianapolis Center
Wed 07:26:51 AM 40.0369 -82.9903 168° South 200 230 4,000 -545 Descending Indianapolis Center
Wed 07:27:52 AM 39.9833 -82.9786 171° South 185 213 3,500 -689 Descending Indianapolis Center
Wed 07:28:53 AM 39.9339 -82.9650 168° South 188 216 2,600 -744 Descending Indianapolis Center
Wed 07:29:53 AM 39.8900 -82.9328 151° Southeast 170 196 2,000 -524 Descending Indianapolis Center
Wed 07:30:59 AM 39.8519 -82.9047 150° Southeast 160 184 1,500 -569 Descending Indianapolis Center
Wed 07:31:49 AM 39.8289 -82.9094 189° South 116 133 900 -720 Descending Indianapolis Center

Login

Don't have an account? Register now (free) for customized features, flight alerts, and more!